createdAt,value
2017-12-31T00:00:15.665Z,13.70
2017-12-31T00:02:43.351Z,11.02
2017-12-31T00:05:10.978Z,15.52
2017-12-31T00:07:38.635Z,10.95
2017-12-31T00:10:06.272Z,13.73
2017-12-31T00:12:34.141Z,13.55
2017-12-31T00:15:01.801Z,12.95
2017-12-31T00:17:30.216Z,11.82
2017-12-31T00:19:57.868Z,13.20
2017-12-31T00:22:25.614Z,13.57
2017-12-31T00:24:53.243Z,11.38
2017-12-31T00:27:20.914Z,13.30
2017-12-31T00:29:48.546Z,9.75
2017-12-31T00:32:16.229Z,11.38
2017-12-31T00:34:43.860Z,12.30
2017-12-31T00:37:11.682Z,10.40
2017-12-31T00:39:39.341Z,16.42
2017-12-31T00:42:06.979Z,11.45
2017-12-31T00:44:34.687Z,11.15
2017-12-31T00:47:02.330Z,13.18
2017-12-31T00:49:29.984Z,16.70
2017-12-31T00:51:58.418Z,17.62
2017-12-31T00:54:26.131Z,15.82
2017-12-31T00:56:53.773Z,7.57
2017-12-31T00:59:21.397Z,16.58
2017-12-31T01:01:49.029Z,12.55
2017-12-31T01:04:16.729Z,11.50
2017-12-31T01:06:44.538Z,10.70
2017-12-31T01:09:13.046Z,12.30
2017-12-31T01:11:40.705Z,13.25
2017-12-31T01:14:08.347Z,10.77
2017-12-31T01:16:36.074Z,16.52
2017-12-31T01:19:03.693Z,11.35
2017-12-31T01:21:31.358Z,10.90
2017-12-31T01:23:58.990Z,15.23
2017-12-31T01:26:26.618Z,13.85
2017-12-31T01:28:55.127Z,14.68
2017-12-31T01:31:22.763Z,11.45
2017-12-31T01:33:50.438Z,15.68
2017-12-31T01:36:18.082Z,12.00
2017-12-31T01:38:45.893Z,12.55
2017-12-31T01:41:14.536Z,12.63
2017-12-31T01:43:42.168Z,12.60
2017-12-31T01:46:09.825Z,14.60
2017-12-31T01:48:37.460Z,12.10
2017-12-31T01:51:05.101Z,12.23
2017-12-31T01:53:32.769Z,14.18
2017-12-31T01:56:00.593Z,11.18
2017-12-31T01:58:28.277Z,12.15
2017-12-31T02:00:55.997Z,14.45
2017-12-31T02:03:23.704Z,14.18
2017-12-31T02:05:51.360Z,14.77
2017-12-31T02:08:18.996Z,21.02
2017-12-31T02:10:46.643Z,15.25
2017-12-31T02:13:14.320Z,8.65
2017-12-31T02:15:41.976Z,12.90
2017-12-31T02:18:09.607Z,8.55
2017-12-31T02:20:37.269Z,12.23
2017-12-31T02:23:05.056Z,10.27
2017-12-31T02:25:33.495Z,13.73
2017-12-31T02:28:01.160Z,11.70
2017-12-31T02:30:28.804Z,10.57
2017-12-31T02:32:56.450Z,11.35
2017-12-31T02:35:24.163Z,16.77
2017-12-31T02:37:51.785Z,13.50
2017-12-31T02:40:19.418Z,12.40
2017-12-31T02:42:47.078Z,15.50
2017-12-31T02:45:14.945Z,10.60
2017-12-31T02:47:42.574Z,12.23
2017-12-31T02:50:10.221Z,16.30
2017-12-31T02:52:37.843Z,14.38
2017-12-31T02:55:06.238Z,10.25
2017-12-31T02:57:34.129Z,8.73
2017-12-31T03:00:01.775Z,16.60
2017-12-31T03:02:29.414Z,11.45
2017-12-31T03:04:57.078Z,12.05
2017-12-31T03:07:24.945Z,13.07
2017-12-31T03:09:53.357Z,12.90
2017-12-31T03:12:20.994Z,15.43
2017-12-31T03:14:48.624Z,14.50
2017-12-31T03:17:16.286Z,11.40
2017-12-31T03:19:44.109Z,14.05
2017-12-31T03:22:12.530Z,10.88
2017-12-31T03:24:40.166Z,10.60
2017-12-31T03:27:07.802Z,15.60
2017-12-31T03:29:35.718Z,25.35
2017-12-31T03:32:04.155Z,12.85
2017-12-31T03:34:31.807Z,13.30
2017-12-31T03:36:59.417Z,17.52
2017-12-31T03:39:27.062Z,13.27
2017-12-31T03:41:54.936Z,14.63
2017-12-31T03:44:22.577Z,13.77
2017-12-31T03:46:50.243Z,15.38
2017-12-31T03:49:17.863Z,17.30
2017-12-31T03:51:45.673Z,11.90
2017-12-31T03:54:14.202Z,13.95
2017-12-31T03:56:41.825Z,17.15
2017-12-31T03:59:09.486Z,14.95
2017-12-31T04:01:37.336Z,13.07
2017-12-31T04:04:05.150Z,13.07
2017-12-31T04:06:32.810Z,13.20
2017-12-31T04:09:01.278Z,10.80
2017-12-31T04:11:28.941Z,16.42
2017-12-31T04:13:56.556Z,13.43
2017-12-31T04:16:24.198Z,15.40
2017-12-31T04:18:51.906Z,16.83
2017-12-31T04:21:19.533Z,15.65
2017-12-31T04:23:47.201Z,17.73
2017-12-31T04:26:15.015Z,14.10
2017-12-31T04:28:42.634Z,12.82
2017-12-31T04:31:10.285Z,16.20
2017-12-31T04:33:37.909Z,15.50
2017-12-31T04:36:06.336Z,16.58
2017-12-31T04:38:34.017Z,20.23
2017-12-31T04:41:01.721Z,17.37
2017-12-31T04:43:29.376Z,16.10
2017-12-31T04:45:56.991Z,20.30
2017-12-31T04:48:24.705Z,18.23
2017-12-31T04:50:53.103Z,14.82
2017-12-31T04:53:20.737Z,17.60
2017-12-31T04:55:48.398Z,18.80
2017-12-31T04:58:16.157Z,19.23
2017-12-31T05:00:43.833Z,20.00
2017-12-31T05:03:11.559Z,20.10
2017-12-31T05:05:39.202Z,18.50
2017-12-31T05:08:06.862Z,15.82
2017-12-31T05:10:34.608Z,21.90
2017-12-31T05:13:02.261Z,16.12
2017-12-31T05:15:29.933Z,15.95
2017-12-31T05:17:57.556Z,20.35
2017-12-31T05:20:25.208Z,17.70
2017-12-31T05:22:52.825Z,17.12
2017-12-31T05:25:20.486Z,15.70
2017-12-31T05:27:48.101Z,27.20
2017-12-31T05:30:15.872Z,20.80
2017-12-31T05:32:43.529Z,23.67
2017-12-31T05:35:11.145Z,25.33
2017-12-31T05:37:38.794Z,12.88
2017-12-31T05:40:06.414Z,18.98
2017-12-31T05:42:34.943Z,19.00
2017-12-31T05:45:02.612Z,19.35
2017-12-31T05:47:30.239Z,14.25
2017-12-31T05:49:57.884Z,17.12
2017-12-31T05:52:25.619Z,14.40
2017-12-31T05:54:53.236Z,17.35
2017-12-31T05:57:20.881Z,16.37
2017-12-31T05:59:48.494Z,16.05
2017-12-31T06:02:16.250Z,15.00
2017-12-31T06:04:44.748Z,16.45
2017-12-31T06:07:12.384Z,19.52
2017-12-31T06:09:40.038Z,26.37
2017-12-31T06:12:07.656Z,17.05
2017-12-31T06:14:36.169Z,22.05
2017-12-31T06:17:03.798Z,16.40
2017-12-31T06:19:31.490Z,22.25
2017-12-31T06:21:59.155Z,18.52
2017-12-31T06:24:26.789Z,17.77
2017-12-31T06:26:54.673Z,18.55
2017-12-31T06:29:23.071Z,15.40
2017-12-31T06:31:50.701Z,13.88
2017-12-31T06:34:18.354Z,19.70
2017-12-31T06:36:46.051Z,26.08
2017-12-31T06:39:13.711Z,19.42
2017-12-31T06:41:41.339Z,14.25
2017-12-31T06:44:08.976Z,20.25
2017-12-31T06:46:36.625Z,17.80
2017-12-31T06:49:04.257Z,19.75
2017-12-31T06:51:31.919Z,24.37
2017-12-31T06:53:59.554Z,20.27
2017-12-31T06:56:27.188Z,20.20
2017-12-31T06:58:55.069Z,30.70
2017-12-31T07:01:22.704Z,25.70
2017-12-31T07:03:50.378Z,21.35
2017-12-31T07:06:17.992Z,21.50
2017-12-31T07:08:45.702Z,25.35
2017-12-31T07:11:13.366Z,18.45
2017-12-31T07:13:40.984Z,17.58
2017-12-31T07:16:09.405Z,22.85
2017-12-31T07:18:37.021Z,15.48
2017-12-31T07:21:04.760Z,16.42
2017-12-31T07:23:32.421Z,13.75
2017-12-31T07:26:00.034Z,13.35
2017-12-31T07:28:28.461Z,12.93
2017-12-31T07:30:56.104Z,12.20
2017-12-31T07:33:23.762Z,18.45
2017-12-31T07:35:51.420Z,22.33
2017-12-31T07:38:19.036Z,17.60
2017-12-31T07:40:46.686Z,24.27
2017-12-31T07:43:14.333Z,15.15
2017-12-31T07:45:41.938Z,16.73
2017-12-31T07:48:09.620Z,15.50
2017-12-31T07:50:37.240Z,14.65
2017-12-31T07:53:05.075Z,22.80
2017-12-31T07:55:32.745Z,14.02
2017-12-31T07:58:00.362Z,17.48
2017-12-31T08:00:28.776Z,22.60
2017-12-31T08:02:56.406Z,20.55
2017-12-31T08:05:24.051Z,16.83
2017-12-31T08:07:52.506Z,29.65
2017-12-31T08:10:20.141Z,14.15
2017-12-31T08:12:47.821Z,16.62
2017-12-31T08:15:15.616Z,9.70
2017-12-31T08:17:43.271Z,9.35
2017-12-31T08:20:11.665Z,14.38
2017-12-31T08:22:39.289Z,10.60
2017-12-31T08:25:07.009Z,16.10
2017-12-31T08:27:34.664Z,10.63
2017-12-31T08:30:02.327Z,22.33
2017-12-31T08:32:29.991Z,12.88
2017-12-31T08:34:57.608Z,8.82
2017-12-31T08:37:25.255Z,12.77
2017-12-31T08:39:52.874Z,10.07
2017-12-31T08:42:20.528Z,10.43
2017-12-31T08:44:48.144Z,15.73
2017-12-31T08:47:15.953Z,10.05
2017-12-31T08:49:43.612Z,8.27
2017-12-31T08:52:11.240Z,11.27
2017-12-31T08:54:39.664Z,11.27
2017-12-31T08:57:07.304Z,13.73
2017-12-31T08:59:35.061Z,10.35
2017-12-31T09:02:02.721Z,12.57
2017-12-31T09:04:30.352Z,9.68
2017-12-31T09:06:58.013Z,12.45
2017-12-31T09:09:25.676Z,10.60
2017-12-31T09:11:53.291Z,6.97
2017-12-31T09:14:20.972Z,12.98
2017-12-31T09:16:48.584Z,7.68
2017-12-31T09:19:16.240Z,11.35
2017-12-31T09:21:43.866Z,12.60
2017-12-31T09:24:11.728Z,8.32
2017-12-31T09:26:39.551Z,7.00
2017-12-31T09:29:07.255Z,8.35
2017-12-31T09:31:35.097Z,5.12
2017-12-31T09:34:02.728Z,6.60
2017-12-31T09:36:30.371Z,7.43
2017-12-31T09:38:58.029Z,5.22
2017-12-31T09:41:25.685Z,10.25
2017-12-31T09:43:53.328Z,3.62
2017-12-31T09:46:20.959Z,4.45
2017-12-31T09:48:48.616Z,4.32
2017-12-31T09:51:16.260Z,6.25
2017-12-31T09:53:44.134Z,6.35
2017-12-31T09:56:11.808Z,4.78
2017-12-31T09:58:40.197Z,6.75
2017-12-31T10:01:07.817Z,2.78
2017-12-31T10:03:35.661Z,3.97
2017-12-31T10:06:04.150Z,4.93
2017-12-31T10:08:31.809Z,4.35
2017-12-31T10:10:59.445Z,4.97
2017-12-31T10:13:27.067Z,6.87
2017-12-31T10:15:55.641Z,7.20
2017-12-31T10:18:23.262Z,3.85
2017-12-31T10:20:50.935Z,5.30
2017-12-31T10:23:19.325Z,6.18
2017-12-31T10:25:46.938Z,5.10
2017-12-31T10:28:15.349Z,4.97
2017-12-31T10:30:42.993Z,3.62
2017-12-31T10:33:11.040Z,3.70
2017-12-31T10:35:38.662Z,6.95
2017-12-31T10:38:06.281Z,3.42
2017-12-31T10:40:34.129Z,4.05
2017-12-31T10:43:01.749Z,7.05
2017-12-31T10:45:29.400Z,6.07
2017-12-31T10:47:57.020Z,5.90
2017-12-31T10:50:24.643Z,9.82
2017-12-31T10:52:52.291Z,4.82
2017-12-31T10:55:19.924Z,6.25
2017-12-31T10:57:48.344Z,6.37
2017-12-31T11:00:16.093Z,6.28
2017-12-31T11:02:43.730Z,4.25
2017-12-31T11:05:11.389Z,5.97
2017-12-31T11:07:39.021Z,6.18
2017-12-31T11:10:06.700Z,3.83
2017-12-31T11:12:34.546Z,5.85
2017-12-31T11:15:02.163Z,4.60
2017-12-31T11:17:29.892Z,5.78
2017-12-31T11:19:57.506Z,2.58
2017-12-31T11:22:26.030Z,8.18
2017-12-31T11:24:53.672Z,4.12
2017-12-31T11:27:21.292Z,3.70
2017-12-31T11:29:48.941Z,3.37
2017-12-31T11:32:16.557Z,5.15
2017-12-31T11:34:44.227Z,5.35
2017-12-31T11:37:11.852Z,4.65
2017-12-31T11:39:40.253Z,5.15
2017-12-31T11:42:07.917Z,3.08
2017-12-31T11:44:35.626Z,3.17
2017-12-31T11:47:04.164Z,3.60
2017-12-31T11:49:31.790Z,2.78
2017-12-31T11:51:59.406Z,3.70
2017-12-31T11:54:27.076Z,4.05
2017-12-31T11:56:54.956Z,4.05
2017-12-31T11:59:22.641Z,3.17
2017-12-31T12:01:50.282Z,3.85
2017-12-31T12:04:18.661Z,4.35
2017-12-31T12:06:46.306Z,2.60
2017-12-31T12:09:13.927Z,3.87
2017-12-31T12:11:41.722Z,2.95
2017-12-31T12:14:09.385Z,6.10
2017-12-31T12:16:37.029Z,4.25
2017-12-31T12:19:04.921Z,3.90
2017-12-31T12:21:33.312Z,4.25
2017-12-31T12:24:00.974Z,3.45
2017-12-31T12:26:28.585Z,6.10
2017-12-31T12:28:56.198Z,2.25
2017-12-31T12:31:23.865Z,5.10
2017-12-31T12:33:51.748Z,4.40
2017-12-31T12:36:19.414Z,4.32
2017-12-31T12:38:47.049Z,3.35
2017-12-31T12:41:19.355Z,3.40
2017-12-31T12:43:47.026Z,1.95
2017-12-31T12:46:15.446Z,3.20
2017-12-31T12:48:43.101Z,4.00
2017-12-31T12:51:10.762Z,3.45
2017-12-31T12:53:38.397Z,8.73
2017-12-31T12:56:06.064Z,4.35
2017-12-31T12:58:33.690Z,3.37
2017-12-31T13:01:01.379Z,3.15
2017-12-31T13:03:29.002Z,4.97
2017-12-31T13:05:56.620Z,3.65
2017-12-31T13:08:24.305Z,3.42
2017-12-31T13:10:51.926Z,3.08
2017-12-31T13:13:19.583Z,3.40
2017-12-31T13:15:47.205Z,3.65
2017-12-31T13:18:14.991Z,2.47
2017-12-31T13:20:43.409Z,2.90
2017-12-31T13:23:11.836Z,3.60
2017-12-31T13:25:39.493Z,2.90
2017-12-31T13:28:07.121Z,6.10
2017-12-31T13:30:35.619Z,5.85
2017-12-31T13:33:05.061Z,3.05
2017-12-31T13:35:33.506Z,3.97
2017-12-31T13:38:01.162Z,4.75
2017-12-31T13:40:28.778Z,4.80
2017-12-31T13:42:57.189Z,4.85
2017-12-31T13:45:25.022Z,3.55
2017-12-31T13:47:52.645Z,6.07
2017-12-31T13:50:20.289Z,5.50
2017-12-31T13:52:47.925Z,2.37
2017-12-31T13:55:15.694Z,3.05
2017-12-31T13:57:43.360Z,4.40
2017-12-31T14:00:10.990Z,2.85
2017-12-31T14:02:38.658Z,3.15
2017-12-31T14:05:06.278Z,2.67
2017-12-31T14:07:33.912Z,2.80
2017-12-31T14:10:02.494Z,2.00
2017-12-31T14:12:30.150Z,3.87
2017-12-31T14:14:57.846Z,4.43
2017-12-31T14:17:25.653Z,3.55
2017-12-31T14:19:53.286Z,3.35
2017-12-31T14:22:20.963Z,3.10
2017-12-31T14:24:49.358Z,3.05
2017-12-31T14:27:17.008Z,2.67
2017-12-31T14:29:44.725Z,4.93
2017-12-31T14:32:13.118Z,3.83
2017-12-31T14:34:40.762Z,2.35
2017-12-31T14:37:08.378Z,8.02
2017-12-31T14:39:36.796Z,2.78
2017-12-31T14:42:04.590Z,4.78
2017-12-31T14:44:32.225Z,4.70
2017-12-31T14:46:59.897Z,2.80
2017-12-31T14:49:28.467Z,4.35
2017-12-31T14:51:56.884Z,2.65
2017-12-31T14:54:24.512Z,5.22
2017-12-31T14:56:53.001Z,3.90
2017-12-31T14:59:21.377Z,8.00
2017-12-31T15:01:49.959Z,4.72
2017-12-31T15:04:17.777Z,10.75
2017-12-31T15:06:45.472Z,2.28
2017-12-31T15:09:13.862Z,6.10
2017-12-31T15:11:41.701Z,4.10
2017-12-31T15:14:09.333Z,5.18
2017-12-31T15:16:37.761Z,4.20
2017-12-31T15:19:05.503Z,4.70
2017-12-31T15:21:33.149Z,5.57
2017-12-31T15:24:00.806Z,7.50
2017-12-31T15:26:28.457Z,9.25
2017-12-31T15:28:56.133Z,5.70
2017-12-31T15:31:24.602Z,5.20
2017-12-31T15:33:52.991Z,4.15
2017-12-31T15:36:20.670Z,10.20
2017-12-31T15:38:48.285Z,7.12
2017-12-31T15:41:16.043Z,7.85
2017-12-31T15:43:43.674Z,5.20
2017-12-31T15:46:11.317Z,10.85
2017-12-31T15:48:39.951Z,10.52
2017-12-31T15:51:10.092Z,10.52
2017-12-31T15:53:40.041Z,8.43
2017-12-31T15:56:07.666Z,8.48
2017-12-31T15:58:35.293Z,7.60
2017-12-31T16:01:02.975Z,11.00
2017-12-31T16:03:30.602Z,9.05
2017-12-31T16:05:58.260Z,5.32
2017-12-31T16:08:25.944Z,9.38
2017-12-31T16:10:54.441Z,8.80
2017-12-31T16:13:22.100Z,7.10
2017-12-31T16:15:49.748Z,6.90
2017-12-31T16:18:17.424Z,5.90
2017-12-31T16:20:48.490Z,8.02
2017-12-31T16:23:16.197Z,21.52
2017-12-31T16:25:43.845Z,11.25
2017-12-31T16:28:12.478Z,9.07
2017-12-31T16:30:40.153Z,11.18
2017-12-31T16:33:07.785Z,5.93
2017-12-31T16:35:35.432Z,5.60
2017-12-31T16:38:03.094Z,7.20
2017-12-31T16:40:30.727Z,7.03
2017-12-31T16:42:59.178Z,5.80
2017-12-31T16:45:26.821Z,6.10
2017-12-31T16:47:55.685Z,5.93
2017-12-31T16:50:23.402Z,7.22
2017-12-31T16:52:51.033Z,8.13
2017-12-31T16:55:18.691Z,5.78
2017-12-31T16:57:46.325Z,13.85
2017-12-31T17:00:13.995Z,18.35
2017-12-31T17:02:42.640Z,7.40
2017-12-31T17:05:10.280Z,9.38
2017-12-31T17:07:37.952Z,7.00
2017-12-31T17:10:05.609Z,7.68
2017-12-31T17:12:34.714Z,6.05
2017-12-31T17:15:02.365Z,9.55
2017-12-31T17:17:29.975Z,4.80
2017-12-31T17:19:59.725Z,6.25
2017-12-31T17:22:27.353Z,5.35
2017-12-31T17:24:55.011Z,5.03
2017-12-31T17:27:23.520Z,6.47
2017-12-31T17:29:51.954Z,6.07
2017-12-31T17:32:20.829Z,7.30
2017-12-31T17:34:48.474Z,8.40
2017-12-31T17:37:16.098Z,8.52
2017-12-31T17:39:43.770Z,5.43
2017-12-31T17:42:11.397Z,7.32
2017-12-31T17:44:39.063Z,12.43
2017-12-31T17:47:06.696Z,9.15
2017-12-31T17:49:34.525Z,13.75
2017-12-31T17:52:02.197Z,16.62
2017-12-31T17:54:29.825Z,11.98
2017-12-31T17:56:57.479Z,7.00
2017-12-31T17:59:25.142Z,12.07
2017-12-31T18:01:52.753Z,8.70
2017-12-31T18:04:23.098Z,8.50
2017-12-31T18:06:51.936Z,7.60
2017-12-31T18:09:20.403Z,6.95
2017-12-31T18:11:49.696Z,5.45
2017-12-31T18:14:17.374Z,6.70
2017-12-31T18:16:45.092Z,5.60
2017-12-31T18:19:12.718Z,7.75
2017-12-31T18:21:41.173Z,10.55
2017-12-31T18:24:08.801Z,10.35
2017-12-31T18:26:36.850Z,8.48
2017-12-31T18:29:04.610Z,4.87
2017-12-31T18:31:32.252Z,6.57
2017-12-31T18:33:59.902Z,10.52
2017-12-31T18:36:27.539Z,13.70
2017-12-31T18:38:55.172Z,9.32
2017-12-31T18:41:22.813Z,6.75
2017-12-31T18:43:50.479Z,6.90
2017-12-31T18:46:18.132Z,4.93
2017-12-31T18:48:46.001Z,6.05
2017-12-31T18:51:13.632Z,6.40
2017-12-31T18:53:41.297Z,9.60
2017-12-31T18:56:08.928Z,9.35
2017-12-31T18:58:36.593Z,6.85
2017-12-31T19:01:08.402Z,4.80
2017-12-31T19:03:36.169Z,5.37
2017-12-31T19:06:03.806Z,5.32
2017-12-31T19:08:31.725Z,5.18
2017-12-31T19:10:59.383Z,7.60
2017-12-31T19:13:27.017Z,5.50
2017-12-31T19:15:54.703Z,8.90
2017-12-31T19:18:22.368Z,10.15
2017-12-31T19:20:50.004Z,8.38
2017-12-31T19:23:18.147Z,8.85
2017-12-31T19:25:45.968Z,10.18
2017-12-31T19:28:13.627Z,8.50
2017-12-31T19:30:41.289Z,7.87
2017-12-31T19:33:09.563Z,7.60
2017-12-31T19:35:37.226Z,6.57
2017-12-31T19:38:07.678Z,7.15
2017-12-31T19:40:35.333Z,6.82
2017-12-31T19:43:02.952Z,6.82
2017-12-31T19:45:31.378Z,11.10
2017-12-31T19:47:59.021Z,4.90
2017-12-31T19:50:26.916Z,5.97
2017-12-31T19:53:02.755Z,5.62
2017-12-31T19:55:34.266Z,4.68
2017-12-31T19:58:01.925Z,6.07
2017-12-31T20:00:29.540Z,5.82
2017-12-31T20:02:57.842Z,8.35
2017-12-31T20:05:25.650Z,6.30
2017-12-31T20:07:54.614Z,6.47
2017-12-31T20:10:22.345Z,5.72
2017-12-31T20:12:50.121Z,12.73
2017-12-31T20:15:18.637Z,8.27
2017-12-31T20:17:46.298Z,8.70
2017-12-31T20:20:14.160Z,5.37
2017-12-31T20:22:41.844Z,9.05
2017-12-31T20:25:09.482Z,7.05
2017-12-31T20:27:37.118Z,7.97
2017-12-31T20:30:04.982Z,10.20
2017-12-31T20:32:32.617Z,8.32
2017-12-31T20:35:00.278Z,7.40
2017-12-31T20:37:27.891Z,10.05
2017-12-31T20:39:55.711Z,10.63
2017-12-31T20:42:23.365Z,8.23
2017-12-31T20:44:51.746Z,10.73
2017-12-31T20:47:19.411Z,12.23
2017-12-31T20:49:47.043Z,10.32
2017-12-31T20:52:14.675Z,11.10
2017-12-31T20:54:42.367Z,20.90
2017-12-31T20:57:09.998Z,10.88
2017-12-31T20:59:37.667Z,10.13
2017-12-31T21:02:05.302Z,10.65
2017-12-31T21:04:32.991Z,14.73
2017-12-31T21:07:01.427Z,16.33
2017-12-31T21:09:29.081Z,14.73
2017-12-31T21:11:56.782Z,18.10
2017-12-31T21:14:24.649Z,19.35
2017-12-31T21:16:52.342Z,9.73
2017-12-31T21:19:20.004Z,13.80
2017-12-31T21:21:48.400Z,10.90
2017-12-31T21:24:16.218Z,9.57
2017-12-31T21:26:44.668Z,13.02
2017-12-31T21:29:12.292Z,9.60
2017-12-31T21:31:39.949Z,9.70
2017-12-31T21:34:07.580Z,9.95
2017-12-31T21:36:35.277Z,9.40
2017-12-31T21:39:03.681Z,12.10
2017-12-31T21:41:31.316Z,11.25
2017-12-31T21:43:58.977Z,9.82
2017-12-31T21:46:26.622Z,15.80
2017-12-31T21:48:54.298Z,9.77
2017-12-31T21:51:21.934Z,12.63
2017-12-31T21:53:49.591Z,12.10
2017-12-31T21:56:17.269Z,8.73
2017-12-31T21:58:45.680Z,6.55
2017-12-31T22:01:13.344Z,9.50
2017-12-31T22:03:41.034Z,28.23
2017-12-31T22:06:08.644Z,15.35
2017-12-31T22:08:36.377Z,23.65
2017-12-31T22:11:04.136Z,8.13
2017-12-31T22:13:31.781Z,6.32
2017-12-31T22:15:59.417Z,9.18
2017-12-31T22:18:27.088Z,7.15
2017-12-31T22:20:55.008Z,8.23
2017-12-31T22:23:22.638Z,7.20
2017-12-31T22:25:50.297Z,7.20
2017-12-31T22:28:17.946Z,10.65
2017-12-31T22:30:45.678Z,8.15
2017-12-31T22:33:13.330Z,10.82
2017-12-31T22:35:40.965Z,9.50
2017-12-31T22:38:08.621Z,8.82
2017-12-31T22:40:36.250Z,6.70
2017-12-31T22:43:03.953Z,7.87
2017-12-31T22:45:32.509Z,9.50
2017-12-31T22:48:00.940Z,7.62
2017-12-31T22:50:28.580Z,6.35
2017-12-31T22:52:56.242Z,7.47
2017-12-31T22:55:23.885Z,5.85
2017-12-31T22:57:51.741Z,6.90
2017-12-31T23:00:19.410Z,7.20
2017-12-31T23:02:47.066Z,14.13
2017-12-31T23:05:16.226Z,24.58
2017-12-31T23:07:43.933Z,25.62
2017-12-31T23:10:11.758Z,23.98
2017-12-31T23:12:39.402Z,36.35
2017-12-31T23:15:07.087Z,60.05
2017-12-31T23:17:34.934Z,39.65
2017-12-31T23:20:02.566Z,58.80
2017-12-31T23:22:31.016Z,42.20
2017-12-31T23:24:58.666Z,67.12
2017-12-31T23:27:26.337Z,33.10
2017-12-31T23:29:54.111Z,50.67
2017-12-31T23:32:22.593Z,32.42
2017-12-31T23:34:50.249Z,27.85
2017-12-31T23:37:17.881Z,32.33
2017-12-31T23:39:45.696Z,37.45
2017-12-31T23:42:14.219Z,35.60
2017-12-31T23:44:41.840Z,28.73
2017-12-31T23:47:09.522Z,32.33
2017-12-31T23:49:37.158Z,38.50
2017-12-31T23:52:04.998Z,28.73
2017-12-31T23:54:32.634Z,23.75
2017-12-31T23:59:34.598Z,17.20
